Time;durP1;ratioP1;P1;durP2;ratioP2;P2;SDS_P1;SDS_P2;PMS_P1;PMS_P2;Temp;Humidity;BMP_temperature;BMP_pressure;BME280_temperature;BME280_humidity;BME280_pressure;Samples;Min_cycle;Max_cycle;Signal;HPM_P1;HPM_P2
2021/04/26 00:02:14;;;;;;;5.90;2.20;;;5.50;99.90;;;;;;5021358;28;20262;-74
2021/04/26 00:04:39;;;;;;;2.83;1.53;;;5.30;99.90;;;;;;5017187;28;20650;-73
2021/04/26 00:07:05;;;;;;;1.67;1.47;;;5.30;99.90;;;;;;5020109;28;20668;-74
2021/04/26 00:09:31;;;;;;;1.67;1.40;;;5.20;99.90;;;;;;5022886;28;20759;-74
2021/04/26 00:11:57;;;;;;;2.97;2.00;;;5.10;99.90;;;;;;5020662;28;20425;-73
2021/04/26 00:14:22;;;;;;;2.37;1.57;;;5.10;99.90;;;;;;5021505;28;20191;-74
2021/04/26 00:16:48;;;;;;;3.07;1.73;;;5.00;99.90;;;;;;5024087;28;20569;-74
2021/04/26 00:19:13;;;;;;;5.23;1.97;;;4.90;99.90;;;;;;5024568;28;20692;-74
2021/04/26 00:21:39;;;;;;;1.97;1.40;;;4.90;99.90;;;;;;5022449;28;20253;-74
2021/04/26 00:24:06;;;;;;;2.47;2.27;;;4.80;99.90;;;;;;5018282;28;20201;-74
2021/04/26 00:26:32;;;;;;;2.97;1.43;;;4.70;99.90;;;;;;5025246;28;20189;-74
2021/04/26 00:28:57;;;;;;;3.07;1.40;;;4.60;99.90;;;;;;5018930;28;20904;-73
2021/04/26 00:31:23;;;;;;;2.00;1.90;;;4.60;99.90;;;;;;5022159;28;20187;-73
2021/04/26 00:33:48;;;;;;;3.07;1.60;;;4.50;99.90;;;;;;5022582;28;20188;-74
2021/04/26 00:36:14;;;;;;;3.27;2.03;;;4.50;99.90;;;;;;5025884;28;20285;-73
2021/04/26 00:38:39;;;;;;;8.80;1.70;;;4.40;99.90;;;;;;5019579;28;20186;-73
2021/04/26 00:41:05;;;;;;;4.80;2.07;;;4.40;99.90;;;;;;5025214;28;20750;-73
2021/04/26 00:43:31;;;;;;;3.13;1.87;;;4.30;99.90;;;;;;5019000;28;20201;-74
2021/04/26 00:45:56;;;;;;;2.13;1.40;;;4.30;99.90;;;;;;5022602;28;20181;-74
2021/04/26 00:48:22;;;;;;;4.10;1.87;;;4.20;99.90;;;;;;5022513;28;20189;-73
2021/04/26 00:50:47;;;;;;;4.17;1.60;;;4.20;99.90;;;;;;5016911;28;20730;-74
2021/04/26 00:53:13;;;;;;;2.07;1.63;;;4.20;99.90;;;;;;5020710;28;20721;-73
2021/04/26 00:55:40;;;;;;;1.63;1.53;;;4.10;99.90;;;;;;5025379;28;20297;-74
2021/04/26 00:58:07;;;;;;;2.33;1.73;;;4.00;99.90;;;;;;5017240;28;20183;-74
2021/04/26 01:00:33;;;;;;;3.17;1.87;;;4.00;99.90;;;;;;5024722;28;20446;-74
2021/04/26 01:02:59;;;;;;;1.70;1.60;;;4.00;99.90;;;;;;5018392;28;20429;-74
2021/04/26 01:05:28;;;;;;;3.37;2.00;;;4.00;99.90;;;;;;5022005;28;20401;-73
2021/04/26 01:07:54;;;;;;;3.37;2.33;;;4.00;99.90;;;;;;5019497;28;20443;-74
2021/04/26 01:10:23;;;;;;;3.40;1.83;;;4.00;99.90;;;;;;5021664;28;20555;-74
2021/04/26 01:13:26;;;;;;;2.20;1.77;;;4.00;99.90;;;;;;5022777;28;20928;-74
2021/04/26 01:16:09;;;;;;;6.17;2.60;;;4.00;99.90;;;;;;5019380;28;20478;-74
2021/04/26 01:18:53;;;;;;;4.17;2.67;;;4.10;99.90;;;;;;5026124;22;20403;-79
2021/04/26 01:21:57;;;;;;;4.70;2.47;;;4.20;99.90;;;;;;5055917;28;20412;-79
2021/04/26 01:24:28;;;;;;;7.43;2.90;;;4.30;99.90;;;;;;5022123;28;20422;-78
2021/04/26 01:27:18;;;;;;;4.73;3.20;;;4.50;99.90;;;;;;5040503;28;20433;-78
2021/04/26 01:30:01;;;;;;;7.53;2.53;;;4.50;99.90;;;;;;5028292;28;20462;-78
2021/04/26 01:32:35;;;;;;;7.67;2.87;;;4.60;99.90;;;;;;5017605;28;20764;-78
2021/04/26 01:35:03;;;;;;;6.57;3.53;;;4.70;99.90;;;;;;5018723;28;20425;-78
2021/04/26 01:37:32;;;;;;;5.33;2.87;;;4.70;99.90;;;;;;5018891;28;20541;-78
2021/04/26 01:39:59;;;;;;;10.27;3.70;;;4.80;99.90;;;;;;5017473;28;20862;-78
2021/04/26 01:42:26;;;;;;;4.77;3.20;;;4.80;99.90;;;;;;5018852;28;20417;-78
2021/04/26 01:44:54;;;;;;;3.20;2.80;;;4.80;99.90;;;;;;5018240;28;20471;-78
2021/04/26 01:47:21;;;;;;;8.30;3.67;;;4.80;99.90;;;;;;5018545;28;20479;-77
2021/04/26 01:49:47;;;;;;;6.00;3.30;;;4.80;99.90;;;;;;5019400;28;20443;-77
2021/04/26 01:52:13;;;;;;;4.30;3.80;;;4.80;99.90;;;;;;5017987;28;20914;-78
2021/04/26 01:54:40;;;;;;;4.90;3.90;;;4.80;99.90;;;;;;5016980;28;20401;-78
2021/04/26 01:57:07;;;;;;;5.03;2.70;;;4.80;99.90;;;;;;5021410;28;20483;-78
2021/04/26 01:59:34;;;;;;;4.90;3.27;;;4.70;99.90;;;;;;5021578;28;20485;-78
2021/04/26 02:02:00;;;;;;;4.30;3.37;;;4.70;99.90;;;;;;5021565;28;20453;-77
2021/04/26 02:04:28;;;;;;;5.53;2.80;;;4.60;99.90;;;;;;5017888;28;20492;-77
2021/04/26 02:06:54;;;;;;;3.93;3.23;;;4.50;99.90;;;;;;5016518;28;20432;-77
2021/04/26 02:09:20;;;;;;;3.50;2.20;;;4.40;99.90;;;;;;5017639;28;20455;-77
2021/04/26 02:11:46;;;;;;;8.33;3.03;;;4.30;99.90;;;;;;5015952;28;20473;-77
2021/04/26 02:14:14;;;;;;;3.80;2.63;;;4.10;99.90;;;;;;5017078;28;20441;-77
2021/04/26 02:16:40;;;;;;;6.73;2.73;;;4.00;99.90;;;;;;5017723;28;20579;-77
2021/04/26 02:19:06;;;;;;;2.60;2.40;;;3.90;99.90;;;;;;5017399;28;20938;-77
2021/04/26 02:21:32;;;;;;;8.03;3.53;;;3.80;99.90;;;;;;5017428;28;20426;-77
2021/04/26 02:23:58;;;;;;;4.63;2.93;;;3.70;99.90;;;;;;5016360;28;20208;-77
2021/04/26 02:26:24;;;;;;;9.33;3.70;;;3.70;99.90;;;;;;5017057;28;20427;-77
2021/04/26 02:28:49;;;;;;;3.83;2.77;;;3.60;99.90;;;;;;5017232;28;20209;-78
2021/04/26 02:31:19;;;;;;;9.27;3.37;;;3.60;99.90;;;;;;5018854;28;20180;-78
2021/04/26 02:33:55;;;;;;;9.93;3.27;;;3.50;99.90;;;;;;5018679;28;20214;-77
2021/04/26 02:36:24;;;;;;;4.77;3.10;;;3.50;99.90;;;;;;5015854;28;20482;-77
2021/04/26 02:38:52;;;;;;;3.87;2.97;;;3.50;99.90;;;;;;5015505;28;20449;-78
2021/04/26 02:41:31;;;;;;;6.30;3.70;;;3.40;99.90;;;;;;5016207;28;20454;-77
2021/04/26 02:44:01;;;;;;;5.60;3.37;;;3.40;99.90;;;;;;5016514;28;20427;-77
2021/04/26 02:46:31;;;;;;;3.40;3.10;;;3.30;99.90;;;;;;5016210;28;20427;-77
2021/04/26 02:48:58;;;;;;;5.30;3.10;;;3.30;99.90;;;;;;5016266;28;20491;-76
2021/04/26 02:51:28;;;;;;;4.97;2.60;;;3.20;99.90;;;;;;5015884;28;20439;-77
2021/04/26 02:53:55;;;;;;;7.93;3.43;;;3.10;99.90;;;;;;5015658;28;20423;-78
2021/04/26 02:56:21;;;;;;;5.13;3.57;;;3.10;99.90;;;;;;5016120;28;20565;-78
2021/04/26 02:58:50;;;;;;;9.13;3.43;;;3.10;99.90;;;;;;5017374;28;20954;-78
2021/04/26 03:01:17;;;;;;;5.77;3.53;;;3.10;99.90;;;;;;5012816;28;20421;-77
2021/04/26 03:03:44;;;;;;;7.93;4.43;;;3.10;99.90;;;;;;5012233;28;20431;-77
2021/04/26 03:06:11;;;;;;;6.40;3.90;;;3.00;99.90;;;;;;5015850;28;20439;-78
2021/04/26 03:08:38;;;;;;;4.83;3.80;;;2.90;99.90;;;;;;5015727;28;20500;-77
2021/04/26 03:11:06;;;;;;;3.20;2.97;;;2.90;99.90;;;;;;5016140;28;20409;-77
2021/04/26 03:13:32;;;;;;;7.87;3.40;;;2.80;99.90;;;;;;5015328;28;20444;-77
2021/04/26 03:15:58;;;;;;;4.50;3.70;;;2.80;99.90;;;;;;5016835;28;20472;-77
2021/04/26 03:18:24;;;;;;;7.73;3.80;;;2.80;99.90;;;;;;5000375;28;20424;-77
2021/04/26 03:20:50;;;;;;;6.10;5.50;;;2.70;99.90;;;;;;4999133;28;20206;-77
2021/04/26 03:23:21;;;;;;;4.90;3.90;;;2.70;99.90;;;;;;4996745;28;20963;-78
2021/04/26 03:25:47;;;;;;;5.77;4.00;;;2.60;99.90;;;;;;5006205;28;20191;-77
2021/04/26 03:28:16;;;;;;;11.33;3.70;;;2.60;99.90;;;;;;5016425;28;20544;-77
2021/04/26 03:30:42;;;;;;;8.63;3.80;;;2.60;99.90;;;;;;5016046;28;20503;-77
2021/04/26 03:33:09;;;;;;;6.27;3.67;;;2.60;99.90;;;;;;5016623;28;20418;-77
2021/04/26 03:35:35;;;;;;;5.97;3.07;;;2.60;99.90;;;;;;5004222;28;20463;-77
2021/04/26 03:38:02;;;;;;;5.47;4.30;;;2.50;99.90;;;;;;5015926;28;20434;-77
2021/04/26 03:40:28;;;;;;;8.23;4.27;;;2.50;99.90;;;;;;5016819;28;20502;-78
2021/04/26 03:42:59;;;;;;;11.27;4.97;;;2.40;99.90;;;;;;5021721;28;20459;-77
2021/04/26 03:45:26;;;;;;;7.37;4.13;;;2.40;99.90;;;;;;5020764;28;20208;-78
2021/04/26 03:47:53;;;;;;;6.83;3.60;;;2.40;99.90;;;;;;5020231;28;20428;-79
2021/04/26 03:50:21;;;;;;;5.90;3.70;;;2.30;99.90;;;;;;5022200;28;20435;-79
2021/04/26 03:52:48;;;;;;;5.43;3.93;;;2.30;99.90;;;;;;5021389;28;20486;-78
2021/04/26 03:55:20;;;;;;;11.60;5.00;;;2.30;99.90;;;;;;5023617;28;20440;-78
2021/04/26 03:57:46;;;;;;;13.53;4.40;;;2.30;99.90;;;;;;5023885;28;20515;-79
2021/04/26 04:00:14;;;;;;;15.43;4.77;;;2.20;99.90;;;;;;5022139;28;20457;-78
2021/04/26 04:02:39;;;;;;;12.47;4.40;;;2.20;99.90;;;;;;5022785;28;20440;-79
2021/04/26 04:05:06;;;;;;;16.30;4.40;;;2.20;99.90;;;;;;5023333;28;20832;-79
2021/04/26 04:07:33;;;;;;;5.63;4.10;;;2.20;99.90;;;;;;5022479;28;20196;-79
2021/04/26 04:09:58;;;;;;;10.13;4.20;;;2.10;99.90;;;;;;5020308;28;20461;-79
2021/04/26 04:12:24;;;;;;;11.60;4.93;;;2.10;99.90;;;;;;5022184;28;20423;-78
2021/04/26 04:14:50;;;;;;;17.13;4.23;;;2.10;99.90;;;;;;5020580;28;20647;-78
2021/04/26 04:17:15;;;;;;;8.13;4.60;;;2.10;99.90;;;;;;5018427;28;20201;-79
2021/04/26 04:19:42;;;;;;;8.30;5.30;;;2.10;99.90;;;;;;5018061;28;20206;-79
2021/04/26 04:22:07;;;;;;;11.50;5.63;;;2.10;99.90;;;;;;5018028;28;20182;-78
2021/04/26 04:24:33;;;;;;;33.97;6.73;;;2.20;99.90;;;;;;5018546;28;20383;-78
2021/04/26 04:26:59;;;;;;;12.10;5.03;;;2.20;99.90;;;;;;5013664;28;20210;-79
2021/04/26 04:29:24;;;;;;;11.87;4.50;;;2.20;99.90;;;;;;5017872;28;20201;-78
2021/04/26 04:31:50;;;;;;;10.50;4.70;;;2.20;99.90;;;;;;5018094;28;20200;-78
2021/04/26 04:34:16;;;;;;;10.40;4.87;;;2.30;99.90;;;;;;5017722;28;20182;-78
2021/04/26 04:36:41;;;;;;;6.00;4.67;;;2.30;99.90;;;;;;5017703;28;20505;-81
2021/04/26 04:39:07;;;;;;;14.03;5.67;;;2.40;99.90;;;;;;5017382;28;20200;-80
2021/04/26 04:41:33;;;;;;;5.90;4.80;;;2.40;99.90;;;;;;5016476;28;20261;-80
2021/04/26 04:44:00;;;;;;;7.47;5.20;;;2.40;99.90;;;;;;5017961;28;20182;-80
2021/04/26 04:46:26;;;;;;;5.80;4.60;;;2.50;99.90;;;;;;5015826;28;20268;-80
2021/04/26 04:48:52;;;;;;;8.90;4.40;;;2.60;99.90;;;;;;5015560;28;20435;-80
2021/04/26 04:51:18;;;;;;;6.63;4.57;;;2.60;99.90;;;;;;5014726;28;20431;-80
2021/04/26 04:53:43;;;;;;;6.77;4.70;;;2.70;99.90;;;;;;5013686;28;20174;-80
2021/04/26 04:56:09;;;;;;;11.47;5.23;;;2.90;99.90;;;;;;5016200;28;20203;-80
2021/04/26 04:58:35;;;;;;;6.57;4.60;;;3.10;99.90;;;;;;5016113;28;20282;-80
2021/04/26 05:01:00;;;;;;;5.93;5.37;;;3.30;99.90;;;;;;5016289;28;20184;-80
2021/04/26 05:03:26;;;;;;;5.23;4.70;;;3.50;99.90;;;;;;5015860;28;20168;-80
2021/04/26 05:05:51;;;;;;;6.37;4.80;;;3.70;99.90;;;;;;5015959;28;20175;-80
2021/04/26 05:08:17;;;;;;;6.93;5.47;;;3.80;99.90;;;;;;5015965;28;20590;-80
2021/04/26 05:10:42;;;;;;;8.03;4.50;;;4.00;99.90;;;;;;5014844;28;20569;-80
2021/04/26 05:13:09;;;;;;;5.30;4.80;;;4.10;99.90;;;;;;5015494;28;20245;-80
2021/04/26 05:15:34;;;;;;;12.53;5.70;;;4.30;99.90;;;;;;5015058;28;20180;-80
2021/04/26 05:18:00;;;;;;;13.67;4.43;;;4.90;99.90;;;;;;5014743;28;20439;-80
2021/04/26 05:20:26;;;;;;;13.70;4.60;;;6.40;99.90;;;;;;5015414;28;20229;-80
2021/04/26 05:22:54;;;;;;;7.20;4.33;;;8.30;99.90;;;;;;5015001;28;20182;-80
2021/04/26 05:25:19;;;;;;;7.17;4.90;;;10.00;99.90;;;;;;5015249;28;20265;-80
2021/04/26 05:27:45;;;;;;;5.70;4.20;;;12.00;99.90;;;;;;5015828;28;20480;-81
2021/04/26 05:30:11;;;;;;;7.40;4.20;;;13.80;99.90;;;;;;5014966;28;20186;-81
2021/04/26 05:32:37;;;;;;;6.87;4.30;;;15.20;99.90;;;;;;5015296;28;20177;-81
2021/04/26 05:35:04;;;;;;;8.07;3.80;;;16.10;97.90;;;;;;5014057;28;20919;-81
2021/04/26 05:37:29;;;;;;;7.30;3.93;;;16.20;95.70;;;;;;5014793;28;20512;-81
2021/04/26 05:39:55;;;;;;;8.40;4.00;;;16.80;94.60;;;;;;5015491;28;20944;-81
2021/04/26 05:42:21;;;;;;;7.30;4.13;;;16.50;92.70;;;;;;5013767;28;20179;-81
2021/04/26 05:44:46;;;;;;;3.87;3.53;;;16.80;91.70;;;;;;5014797;28;20183;-81
2021/04/26 05:47:12;;;;;;;6.50;4.13;;;17.20;91.10;;;;;;5014579;28;20244;-81
2021/04/26 05:49:38;;;;;;;12.03;3.70;;;17.70;90.40;;;;;;5014625;28;20310;-79
2021/04/26 05:52:04;;;;;;;7.90;4.37;;;17.60;88.70;;;;;;5016109;28;20448;-79
2021/04/26 05:54:29;;;;;;;5.80;4.03;;;18.00;87.60;;;;;;5017180;28;20231;-79
2021/04/26 05:56:55;;;;;;;6.80;4.20;;;18.60;85.50;;;;;;5015271;28;20461;-79
2021/04/26 05:59:21;;;;;;;5.33;4.33;;;18.50;83.40;;;;;;5014579;28;20195;-79
2021/04/26 06:01:46;;;;;;;5.03;3.40;;;18.50;84.70;;;;;;5013526;28;20262;-78
2021/04/26 06:04:13;;;;;;;6.03;3.90;;;18.80;83.80;;;;;;5013259;28;20660;-79
2021/04/26 06:06:38;;;;;;;10.60;4.23;;;18.60;81.20;;;;;;5013192;28;20653;-80
2021/04/26 06:09:04;;;;;;;6.70;4.23;;;18.40;80.50;;;;;;5013033;28;20544;-80
2021/04/26 06:11:30;;;;;;;9.23;3.70;;;18.30;82.20;;;;;;5012352;28;20191;-79
2021/04/26 06:13:55;;;;;;;7.10;3.63;;;18.20;81.50;;;;;;5011724;28;20434;-82
2021/04/26 06:16:21;;;;;;;5.03;4.13;;;17.90;80.80;;;;;;5006656;28;20207;-83
2021/04/26 06:18:47;;;;;;;6.50;4.53;;;17.40;81.20;;;;;;5010196;28;20198;-83
2021/04/26 06:21:12;;;;;;;10.67;5.37;;;17.00;81.30;;;;;;5012354;28;20175;-82
2021/04/26 06:23:38;;;;;;;8.77;4.33;;;16.10;82.30;;;;;;5012368;28;20273;-84
2021/04/26 06:26:04;;;;;;;10.20;4.20;;;15.60;83.60;;;;;;5010705;28;20184;-83
2021/04/26 06:28:29;;;;;;;5.50;5.03;;;15.10;85.20;;;;;;5007759;28;20500;-85
2021/04/26 06:30:55;;;;;;;6.30;3.97;;;14.90;86.40;;;;;;5012341;28;20254;-84
2021/04/26 06:33:21;;;;;;;4.90;4.47;;;14.70;87.40;;;;;;5011065;28;20595;-83
2021/04/26 06:35:50;;;;;;;6.87;3.97;;;14.50;86.30;;;;;;5010308;28;20208;-84
2021/04/26 06:38:17;;;;;;;4.93;4.43;;;14.60;86.70;;;;;;5013249;28;20633;-82
2021/04/26 06:40:43;;;;;;;7.00;4.47;;;14.50;86.50;;;;;;5013600;28;20417;-79
2021/04/26 06:43:12;;;;;;;6.00;4.60;;;14.50;87.20;;;;;;5013707;28;20957;-78
2021/04/26 06:45:41;;;;;;;10.33;5.33;;;14.60;88.80;;;;;;5012892;28;20925;-79
2021/04/26 06:48:08;;;;;;;8.63;4.40;;;14.60;88.50;;;;;;5012184;28;20963;-77
2021/04/26 06:50:34;;;;;;;7.00;4.87;;;14.60;88.00;;;;;;5008585;28;20495;-77
2021/04/26 06:53:00;;;;;;;5.37;4.07;;;14.40;85.90;;;;;;5010406;28;21108;-77
2021/04/26 06:55:26;;;;;;;7.20;4.90;;;14.10;86.30;;;;;;5011134;28;20516;-77
2021/04/26 06:57:52;;;;;;;9.57;4.37;;;14.20;87.70;;;;;;5011700;28;20178;-77
2021/04/26 07:00:20;;;;;;;6.90;6.13;;;14.20;88.00;;;;;;5011166;28;20585;-77
2021/04/26 07:02:49;;;;;;;7.23;4.57;;;14.10;88.90;;;;;;5011627;28;20437;-77
2021/04/26 07:05:16;;;;;;;5.90;4.57;;;14.40;88.60;;;;;;5011409;28;20432;-77
2021/04/26 07:07:41;;;;;;;15.63;5.23;;;14.40;87.70;;;;;;5011645;28;20789;-81
2021/04/26 07:10:08;;;;;;;8.23;5.10;;;14.50;87.80;;;;;;5011811;28;20457;-81
2021/04/26 07:12:34;;;;;;;8.20;5.10;;;14.40;87.10;;;;;;5013975;28;20196;-82
2021/04/26 07:15:00;;;;;;;6.67;5.00;;;14.30;87.60;;;;;;5013060;28;20444;-81
2021/04/26 07:17:26;;;;;;;8.50;5.20;;;14.10;88.50;;;;;;5014253;28;20463;-81
2021/04/26 07:19:52;;;;;;;6.77;5.03;;;14.20;89.30;;;;;;5013984;28;20953;-82
2021/04/26 07:22:17;;;;;;;5.57;4.80;;;14.80;89.30;;;;;;5011975;28;20532;-78
2021/04/26 07:24:44;;;;;;;7.60;4.43;;;14.70;87.30;;;;;;5011494;28;20202;-79
2021/04/26 07:27:09;;;;;;;8.67;5.93;;;14.80;88.20;;;;;;5002665;28;20183;-79
2021/04/26 07:29:35;;;;;;;8.50;5.73;;;14.50;88.00;;;;;;5027234;28;20454;-79
2021/04/26 07:32:00;;;;;;;8.93;5.13;;;14.50;88.00;;;;;;5006901;28;20809;-79
2021/04/26 07:34:26;;;;;;;8.87;5.23;;;14.50;88.50;;;;;;5012970;28;20240;-79
2021/04/26 07:36:52;;;;;;;7.23;4.23;;;15.00;86.90;;;;;;5008626;28;20330;-79
2021/04/26 07:39:19;;;;;;;6.47;4.97;;;15.10;90.00;;;;;;5009745;28;20226;-79
2021/04/26 07:41:45;;;;;;;10.50;5.07;;;15.30;87.70;;;;;;5010799;28;20269;-79
2021/04/26 07:44:11;;;;;;;13.50;4.90;;;15.30;87.00;;;;;;5008335;28;20981;-79
2021/04/26 07:46:37;;;;;;;6.20;5.30;;;15.50;89.20;;;;;;5025946;28;20434;-79
2021/04/26 07:49:03;;;;;;;8.20;6.17;;;15.50;86.80;;;;;;5006915;28;20816;-80
2021/04/26 07:51:28;;;;;;;8.50;4.97;;;15.30;86.20;;;;;;5011323;28;20191;-79
2021/04/26 07:53:54;;;;;;;7.00;4.73;;;14.90;86.50;;;;;;5010618;28;20424;-80
2021/04/26 07:56:20;;;;;;;10.70;5.00;;;15.40;88.10;;;;;;5010044;28;20570;-80
2021/04/26 07:58:45;;;;;;;5.70;4.53;;;15.40;85.80;;;;;;5012796;28;20631;-82
2021/04/26 08:01:11;;;;;;;4.70;4.40;;;15.30;87.20;;;;;;5011277;28;20174;-82
2021/04/26 08:03:37;;;;;;;8.00;5.73;;;15.60;88.00;;;;;;5010899;28;20433;-82
2021/04/26 08:06:04;;;;;;;8.90;5.70;;;15.60;86.40;;;;;;5009647;28;20183;-82
2021/04/26 08:08:30;;;;;;;6.50;5.07;;;16.10;85.80;;;;;;5011644;28;20697;-82
2021/04/26 08:10:56;;;;;;;6.53;4.90;;;16.10;87.30;;;;;;5012331;28;20433;-82
2021/04/26 08:13:22;;;;;;;6.43;5.10;;;16.40;84.70;;;;;;5009694;28;20502;-82
2021/04/26 08:15:47;;;;;;;6.60;5.20;;;16.70;85.90;;;;;;5011212;28;20207;-82
2021/04/26 08:18:13;;;;;;;6.40;5.37;;;16.80;85.10;;;;;;5024097;28;20444;-82
2021/04/26 08:20:39;;;;;;;7.40;5.10;;;16.70;83.40;;;;;;5011272;28;20186;-80
2021/04/26 08:23:04;;;;;;;5.90;5.30;;;16.80;82.80;;;;;;5012415;28;20210;-80
2021/04/26 08:25:30;;;;;;;5.43;4.60;;;17.00;83.50;;;;;;5007119;28;20189;-85
2021/04/26 08:27:57;;;;;;;9.83;5.60;;;16.80;83.50;;;;;;5013636;28;20179;-85
2021/04/26 08:30:23;;;;;;;9.43;5.63;;;16.90;85.10;;;;;;5015408;28;20261;-85
2021/04/26 08:32:48;;;;;;;5.43;4.47;;;17.20;82.70;;;;;;5015784;28;20434;-85
2021/04/26 08:35:15;;;;;;;6.97;5.70;;;17.60;83.40;;;;;;5017095;28;20886;-85
2021/04/26 08:37:40;;;;;;;7.10;6.40;;;18.00;81.20;;;;;;5017396;28;20723;-85
2021/04/26 08:40:07;;;;;;;7.37;4.87;;;17.50;81.70;;;;;;5017367;28;20438;-85
2021/04/26 08:42:33;;;;;;;8.53;4.93;;;18.00;83.00;;;;;;5015715;28;20266;-84
2021/04/26 08:44:58;;;;;;;7.27;5.40;;;18.20;84.60;;;;;;5018721;28;20453;-85
2021/04/26 08:47:25;;;;;;;6.27;4.70;;;18.30;82.80;;;;;;5016589;28;20182;-85
2021/04/26 08:49:58;;;;;;;11.13;5.63;;;18.80;81.90;;;;;;5017138;28;20199;-82
2021/04/26 08:52:27;;;;;;;6.73;4.60;;;19.10;81.00;;;;;;5017400;28;20496;-82
2021/04/26 08:54:54;;;;;;;9.70;5.50;;;18.90;83.20;;;;;;5016434;28;20441;-84
2021/04/26 08:57:20;;;;;;;5.63;4.97;;;18.60;80.60;;;;;;5012982;28;20468;-84
2021/04/26 08:59:47;;;;;;;9.40;5.60;;;19.10;81.00;;;;;;5013470;28;20823;-84
2021/04/26 09:02:13;;;;;;;5.80;4.73;;;19.20;81.30;;;;;;5014833;28;20425;-84
2021/04/26 09:04:51;;;;;;;6.30;4.77;;;19.50;80.70;;;;;;5011190;28;20442;-82
2021/04/26 09:07:18;;;;;;;7.83;5.10;;;20.00;82.00;;;;;;5034348;28;20444;-84
2021/04/26 09:09:52;;;;;;;7.47;5.63;;;20.20;77.40;;;;;;5017253;28;20943;-84
2021/04/26 09:12:28;;;;;;;10.03;5.23;;;20.30;78.20;;;;;;5029321;28;20436;-84
2021/04/26 09:15:04;;;;;;;6.13;5.53;;;20.50;77.90;;;;;;5014162;28;20425;-84
2021/04/26 09:17:48;;;;;;;5.63;4.60;;;20.50;77.30;;;;;;5014364;28;20508;-85
2021/04/26 09:20:17;;;;;;;8.03;6.10;;;20.80;77.20;;;;;;5027933;28;20460;-82
2021/04/26 09:22:54;;;;;;;8.93;6.87;;;20.50;76.20;;;;;;5015275;28;20437;-84
2021/04/26 09:25:23;;;;;;;8.70;4.77;;;20.20;78.70;;;;;;4999860;28;20448;-82
2021/04/26 09:27:52;;;;;;;7.90;5.23;;;20.70;78.00;;;;;;5015155;28;20472;-82
2021/04/26 09:30:43;;;;;;;16.47;5.80;;;20.70;77.50;;;;;;5015311;28;20456;-83
2021/04/26 09:33:34;;;;;;;5.97;5.47;;;20.80;77.40;;;;;;5010342;28;20999;-82
2021/04/26 09:36:14;;;;;;;5.67;4.30;;;20.90;78.40;;;;;;5010870;28;20948;-81
2021/04/26 09:38:43;;;;;;;7.40;5.27;;;20.10;74.80;;;;;;5012949;28;20452;-83
2021/04/26 09:41:13;;;;;;;6.53;5.13;;;20.10;76.00;;;;;;5014210;28;20460;-82
2021/04/26 09:43:41;;;;;;;6.33;5.70;;;20.30;78.10;;;;;;5013575;28;20496;-85
2021/04/26 09:46:07;;;;;;;10.50;6.03;;;20.40;75.80;;;;;;5012176;28;20443;-84
2021/04/26 09:48:33;;;;;;;9.10;5.97;;;20.60;75.90;;;;;;5012949;28;20868;-79
2021/04/26 09:51:05;;;;;;;7.43;5.50;;;20.60;76.40;;;;;;5013857;28;20429;-84
2021/04/26 09:53:45;;;;;;;8.53;5.17;;;19.90;74.80;;;;;;5011890;28;20805;-83
2021/04/26 09:56:16;;;;;;;5.97;5.47;;;20.10;76.50;;;;;;5014585;28;20471;-82
2021/04/26 09:58:45;;;;;;;5.47;4.97;;;21.00;77.80;;;;;;5013412;28;20462;-81
2021/04/26 10:01:11;;;;;;;7.27;5.20;;;21.50;75.00;;;;;;5013143;28;20492;-81
2021/04/26 10:03:37;;;;;;;7.73;4.73;;;21.40;73.90;;;;;;5012741;28;20887;-84
2021/04/26 10:06:03;;;;;;;7.93;6.17;;;21.30;76.20;;;;;;5013782;28;20436;-84
2021/04/26 10:08:29;;;;;;;13.63;6.23;;;20.90;75.00;;;;;;5013598;28;20217;-83
2021/04/26 10:10:56;;;;;;;5.60;5.10;;;21.00;77.10;;;;;;5013930;28;20810;-80
2021/04/26 10:13:23;;;;;;;8.03;5.30;;;20.90;74.80;;;;;;5014072;28;20787;-80
2021/04/26 10:15:57;;;;;;;6.90;5.67;;;20.80;74.30;;;;;;5013378;28;20479;-81
2021/04/26 10:18:35;;;;;;;4.70;4.20;;;21.00;76.20;;;;;;5013739;28;20433;-87
2021/04/26 10:21:03;;;;;;;6.97;5.27;;;21.30;72.80;;;;;;5019334;28;20433;-86
2021/04/26 10:23:37;;;;;;;10.03;6.00;;;20.60;74.20;;;;;;5011125;28;20449;-87
2021/04/26 10:26:03;;;;;;;6.30;4.90;;;20.80;73.80;;;;;;5011184;28;20515;-80
2021/04/26 10:28:31;;;;;;;5.93;4.93;;;21.00;72.60;;;;;;5013031;28;20430;-83
2021/04/26 10:31:10;;;;;;;5.90;5.30;;;21.10;74.00;;;;;;5013316;28;20424;-84
2021/04/26 10:33:55;;;;;;;7.17;5.23;;;21.10;72.30;;;;;;5003212;28;20422;-84
2021/04/26 10:36:44;;;;;;;7.90;5.70;;;21.10;74.70;;;;;;5012462;28;20476;-83
2021/04/26 10:39:17;;;;;;;9.17;5.47;;;21.20;72.90;;;;;;5011867;28;20457;-84
2021/04/26 10:41:50;;;;;;;5.83;5.20;;;20.70;73.60;;;;;;5018979;28;20844;-84
2021/04/26 10:44:41;;;;;;;4.73;4.33;;;20.90;72.40;;;;;;4995394;28;20430;-83
2021/04/26 10:47:19;;;;;;;6.07;4.90;;;20.80;73.60;;;;;;5012279;28;20441;-83
2021/04/26 10:49:46;;;;;;;5.43;4.90;;;21.00;70.90;;;;;;5011832;28;20454;-83
2021/04/26 10:52:27;;;;;;;8.37;5.60;;;21.30;72.00;;;;;;5011327;28;20495;-84
2021/04/26 10:55:20;;;;;;;6.13;5.20;;;21.30;73.00;;;;;;5013648;28;20524;-83
2021/04/26 10:57:50;;;;;;;5.17;4.67;;;21.60;73.40;;;;;;5012917;28;20937;-83
2021/04/26 11:00:32;;;;;;;5.73;5.17;;;21.30;69.90;;;;;;5019661;28;20991;-82
2021/04/26 11:02:58;;;;;;;6.90;5.73;;;20.50;70.20;;;;;;5017361;28;20532;-85
2021/04/26 11:05:28;;;;;;;15.13;5.97;;;19.50;71.80;;;;;;5017210;28;20434;-85
2021/04/26 11:08:02;;;;;;;8.57;5.27;;;19.70;72.60;;;;;;5016347;28;20456;-84
2021/04/26 11:10:33;;;;;;;10.13;5.60;;;19.90;75.30;;;;;;5018465;28;20469;-84
2021/04/26 11:13:02;;;;;;;5.17;4.33;;;19.60;71.90;;;;;;5013702;28;20434;-82
2021/04/26 11:15:28;;;;;;;7.97;5.07;;;19.90;72.40;;;;;;5014795;28;20481;-82
2021/04/26 11:17:54;;;;;;;6.00;5.40;;;19.90;72.30;;;;;;5018824;28;20754;-82
2021/04/26 11:20:26;;;;;;;9.00;5.67;;;19.80;70.30;;;;;;5017843;28;20465;-82
2021/04/26 11:22:56;;;;;;;5.70;5.23;;;19.60;71.10;;;;;;5019533;28;20480;-83
2021/04/26 11:25:39;;;;;;;8.70;5.27;;;19.70;72.30;;;;;;5013198;28;20438;-82
2021/04/26 11:28:08;;;;;;;5.67;5.13;;;19.50;71.90;;;;;;5016799;28;20478;-82
2021/04/26 11:30:36;;;;;;;6.77;5.40;;;19.10;71.90;;;;;;5010228;28;20521;-82
2021/04/26 11:33:03;;;;;;;7.63;5.30;;;19.00;73.70;;;;;;5016915;28;20441;-83
2021/04/26 11:35:30;;;;;;;7.13;5.67;;;19.10;72.50;;;;;;5016495;28;20448;-83
2021/04/26 11:37:55;;;;;;;12.57;5.83;;;19.20;73.10;;;;;;5016348;28;20437;-82
2021/04/26 11:40:25;;;;;;;8.40;5.97;;;18.50;73.60;;;;;;5017698;28;20484;-82
2021/04/26 11:42:51;;;;;;;6.60;4.97;;;18.50;74.20;;;;;;5019016;28;20206;-83
2021/04/26 11:45:21;;;;;;;8.17;5.90;;;18.80;75.00;;;;;;5019111;28;20509;-82
2021/04/26 11:47:48;;;;;;;6.10;4.87;;;19.00;73.80;;;;;;5024635;28;20441;-83
2021/04/26 11:50:14;;;;;;;7.20;4.70;;;19.20;73.80;;;;;;5020849;28;20460;-82
2021/04/26 11:52:40;;;;;;;6.80;4.93;;;19.10;71.90;;;;;;5016236;28;20525;-82
2021/04/26 11:55:09;;;;;;;5.17;4.70;;;19.30;73.70;;;;;;5019324;28;20186;-83
2021/04/26 11:57:42;;;;;;;5.13;4.73;;;19.20;71.90;;;;;;5014173;28;20512;-83
2021/04/26 12:00:11;;;;;;;6.53;5.93;;;19.00;73.90;;;;;;5008975;28;20988;-85
2021/04/26 12:02:44;;;;;;;5.87;5.10;;;18.60;72.40;;;;;;5012398;28;20484;-85
2021/04/26 12:05:12;;;;;;;14.87;5.30;;;18.00;72.00;;;;;;5014684;28;20416;-86
2021/04/26 12:07:38;;;;;;;10.00;5.73;;;17.70;71.70;;;;;;5013116;28;20429;-85
2021/04/26 12:10:08;;;;;;;14.87;6.43;;;17.60;73.00;;;;;;5012013;28;20485;-83
2021/04/26 12:12:34;;;;;;;7.27;5.40;;;17.60;71.80;;;;;;5014372;28;20425;-84
2021/04/26 12:15:04;;;;;;;6.90;5.00;;;17.40;72.70;;;;;;5014577;28;20471;-85
2021/04/26 12:17:33;;;;;;;11.30;4.53;;;17.40;72.60;;;;;;5013387;28;20476;-84
2021/04/26 12:20:00;;;;;;;7.20;4.87;;;17.40;73.10;;;;;;5014558;28;20511;-83
2021/04/26 12:22:32;;;;;;;5.80;5.10;;;17.50;73.10;;;;;;5013507;28;20437;-86
2021/04/26 12:25:02;;;;;;;9.73;4.20;;;17.80;74.30;;;;;;5015273;28;20940;-85
2021/04/26 12:27:28;;;;;;;7.70;5.10;;;18.10;75.60;;;;;;5015076;28;20902;-85
2021/04/26 12:29:53;;;;;;;5.70;4.40;;;18.30;75.10;;;;;;5014443;28;20528;-82
2021/04/26 12:32:21;;;;;;;8.00;5.00;;;18.30;72.00;;;;;;5012982;28;20846;-84
2021/04/26 12:34:49;;;;;;;8.77;5.50;;;18.10;71.30;;;;;;5014791;28;20186;-82
2021/04/26 12:37:15;;;;;;;6.50;5.50;;;18.00;72.30;;;;;;5014863;28;20465;-82
2021/04/26 12:39:41;;;;;;;9.47;5.13;;;17.90;71.00;;;;;;5013372;28;20457;-82
2021/04/26 12:42:15;;;;;;;6.63;4.50;;;17.60;71.30;;;;;;5015654;28;20429;-80
2021/04/26 12:44:42;;;;;;;4.53;4.10;;;17.50;71.90;;;;;;5014690;28;20426;-82
2021/04/26 12:47:15;;;;;;;6.37;5.07;;;17.50;72.80;;;;;;5013963;28;20441;-81
2021/04/26 12:49:41;;;;;;;9.53;4.83;;;17.40;71.30;;;;;;5015674;28;20445;-81
2021/04/26 12:52:18;;;;;;;6.50;3.97;;;17.50;71.10;;;;;;5015242;28;20429;-81
2021/04/26 12:55:02;;;;;;;5.40;4.17;;;17.50;71.80;;;;;;5014765;28;20585;-81
2021/04/26 12:57:28;;;;;;;5.80;4.80;;;17.50;70.80;;;;;;5015434;28;20465;-82